createdAt,value
2018-06-03T00:00:29.414Z,80.72
2018-06-03T00:02:57.240Z,81.58
2018-06-03T00:05:25.057Z,81.75
2018-06-03T00:07:52.960Z,80.07
2018-06-03T00:10:20.779Z,81.03
2018-06-03T00:12:48.566Z,81.00
2018-06-03T00:15:16.408Z,80.96
2018-06-03T00:17:44.213Z,79.42
2018-06-03T00:20:12.198Z,79.82
2018-06-03T00:22:40.023Z,79.90
2018-06-03T00:25:07.893Z,81.61
2018-06-03T00:27:35.707Z,81.51
2018-06-03T00:30:03.766Z,82.88
2018-06-03T00:32:31.582Z,84.23
2018-06-03T00:34:59.573Z,84.83
2018-06-03T00:37:27.602Z,85.01
2018-06-03T00:39:55.402Z,84.57
2018-06-03T00:42:23.352Z,84.41
2018-06-03T00:44:51.191Z,84.30
2018-06-03T00:47:19.027Z,85.09
2018-06-03T00:49:46.848Z,84.52
2018-06-03T00:52:14.754Z,84.08
2018-06-03T00:54:42.571Z,83.26
2018-06-03T00:57:10.805Z,84.26
2018-06-03T00:59:38.982Z,82.89
2018-06-03T01:02:07.025Z,82.96
2018-06-03T01:04:34.835Z,81.32
2018-06-03T01:07:02.690Z,82.19
2018-06-03T01:09:30.520Z,81.61
2018-06-03T01:11:58.328Z,81.86
2018-06-03T01:14:26.228Z,82.19
2018-06-03T01:16:54.020Z,79.90
2018-06-03T01:19:21.912Z,79.74
2018-06-03T01:21:49.763Z,80.06
2018-06-03T01:24:17.724Z,79.53
2018-06-03T01:26:45.526Z,80.20
2018-06-03T01:29:13.503Z,80.68
2018-06-03T01:31:41.324Z,80.98
2018-06-03T01:34:09.163Z,80.80
2018-06-03T01:36:38.902Z,82.09
2018-06-03T01:39:07.112Z,82.03
2018-06-03T01:41:35.048Z,83.13
2018-06-03T01:44:02.910Z,84.28
2018-06-03T01:46:30.725Z,85.35
2018-06-03T01:48:58.568Z,85.09
2018-06-03T01:51:26.551Z,86.16
2018-06-03T01:53:54.364Z,86.32
2018-06-03T01:56:22.170Z,88.38
2018-06-03T01:58:50.072Z,86.84
2018-06-03T02:01:17.879Z,86.34
2018-06-03T02:03:45.824Z,85.65
2018-06-03T02:06:13.665Z,84.80
2018-06-03T02:08:41.476Z,83.98
2018-06-03T02:11:09.420Z,84.50
2018-06-03T02:13:37.412Z,85.13
2018-06-03T02:16:05.257Z,86.22
2018-06-03T02:18:33.061Z,86.68
2018-06-03T02:21:00.984Z,87.04
2018-06-03T02:23:28.791Z,86.88
2018-06-03T02:25:56.800Z,87.03
2018-06-03T02:28:24.646Z,87.54
2018-06-03T02:30:52.603Z,85.90
2018-06-03T02:33:20.421Z,85.81
2018-06-03T02:35:48.280Z,85.40
2018-06-03T02:38:16.220Z,86.28
2018-06-03T02:40:44.066Z,86.54
2018-06-03T02:43:12.084Z,86.41
2018-06-03T02:45:39.888Z,86.16
2018-06-03T02:48:07.845Z,84.70
2018-06-03T02:50:35.707Z,83.51
2018-06-03T02:53:03.522Z,82.93
2018-06-03T02:55:31.340Z,82.78
2018-06-03T02:57:59.189Z,81.66
2018-06-03T03:00:27.021Z,82.88
2018-06-03T03:02:54.839Z,83.12
2018-06-03T03:05:22.869Z,85.90
2018-06-03T03:07:50.708Z,86.01
2018-06-03T03:10:18.673Z,86.36
2018-06-03T03:12:46.523Z,86.35
2018-06-03T03:15:14.416Z,86.30
2018-06-03T03:17:42.294Z,85.98
2018-06-03T03:20:10.153Z,85.34
2018-06-03T03:22:37.956Z,85.33
2018-06-03T03:25:05.831Z,84.28
2018-06-03T03:27:33.800Z,84.55
2018-06-03T03:30:01.614Z,84.17
2018-06-03T03:32:29.427Z,84.77
2018-06-03T03:34:57.268Z,85.44
2018-06-03T03:37:25.060Z,85.46
2018-06-03T03:39:53.118Z,85.94
2018-06-03T03:42:22.103Z,85.18
2018-06-03T03:44:49.928Z,85.49
2018-06-03T03:47:17.744Z,84.72
2018-06-03T03:49:45.822Z,83.95
2018-06-03T03:52:13.629Z,84.24
2018-06-03T03:54:41.461Z,84.26
2018-06-03T03:57:09.333Z,83.96
2018-06-03T03:59:37.167Z,83.49
2018-06-03T04:02:04.980Z,83.34
2018-06-03T04:04:32.846Z,83.19
2018-06-03T04:07:00.671Z,83.32
2018-06-03T04:09:28.517Z,83.74
2018-06-03T04:11:56.446Z,84.85
2018-06-03T04:14:24.248Z,85.53
2018-06-03T04:16:52.171Z,84.61
2018-06-03T04:19:20.015Z,84.97
2018-06-03T04:21:47.815Z,86.41
2018-06-03T04:24:15.620Z,86.34
2018-06-03T04:26:43.479Z,84.54
2018-06-03T04:29:11.270Z,84.75
2018-06-03T04:31:39.209Z,83.88
2018-06-03T04:34:07.123Z,83.62
2018-06-03T04:36:34.952Z,83.18
2018-06-03T04:39:03.173Z,82.96
2018-06-03T04:41:31.253Z,84.64
2018-06-03T04:43:59.064Z,83.93
2018-06-03T04:46:26.886Z,83.45
2018-06-03T04:48:54.729Z,84.99
2018-06-03T04:51:22.811Z,85.59
2018-06-03T04:53:50.612Z,85.25
2018-06-03T04:56:18.543Z,87.60
2018-06-03T04:58:46.815Z,87.12
2018-06-03T05:01:14.768Z,86.06
2018-06-03T05:03:42.769Z,87.28
2018-06-03T05:06:10.630Z,87.27
2018-06-03T05:08:38.611Z,86.94
2018-06-03T05:11:06.468Z,87.37
2018-06-03T05:13:34.308Z,86.48
2018-06-03T05:16:02.126Z,85.22
2018-06-03T05:18:30.082Z,83.90
2018-06-03T05:20:57.904Z,84.75
2018-06-03T05:23:25.779Z,86.43
2018-06-03T05:25:53.625Z,85.25
2018-06-03T05:28:21.429Z,83.73
2018-06-03T05:30:49.216Z,83.38
2018-06-03T05:33:17.092Z,82.29
2018-06-03T05:35:45.052Z,81.58
2018-06-03T05:38:13.026Z,80.53
2018-06-03T05:40:40.980Z,80.42
2018-06-03T05:43:09.125Z,80.86
2018-06-03T05:45:36.958Z,77.96
2018-06-03T05:48:04.982Z,77.32
2018-06-03T05:50:32.839Z,76.58
2018-06-03T05:53:00.680Z,77.17
2018-06-03T05:55:28.537Z,77.11
2018-06-03T05:57:56.499Z,77.35
2018-06-03T06:00:24.329Z,76.00
2018-06-03T06:02:52.396Z,76.46
2018-06-03T06:05:20.389Z,76.03
2018-06-03T06:07:48.263Z,76.36
2018-06-03T06:10:16.138Z,76.04
2018-06-03T06:12:44.460Z,74.92
2018-06-03T06:15:12.454Z,73.17
2018-06-03T06:17:40.321Z,71.99
2018-06-03T06:20:08.531Z,72.53
2018-06-03T06:22:36.397Z,72.74
2018-06-03T06:25:04.768Z,76.31
2018-06-03T06:27:32.923Z,75.10
2018-06-03T06:30:00.953Z,71.48
2018-06-03T06:32:28.802Z,71.18
2018-06-03T06:34:56.768Z,73.75
2018-06-03T06:37:25.127Z,74.08
2018-06-03T06:40:04.610Z,72.42
2018-06-03T06:42:36.566Z,71.54
2018-06-03T06:45:07.020Z,70.71
2018-06-03T06:47:37.207Z,69.92
2018-06-03T06:50:06.035Z,72.16
2018-06-03T06:52:34.054Z,72.04
2018-06-03T06:55:02.934Z,70.30
2018-06-03T06:57:31.114Z,71.37
2018-06-03T06:59:59.003Z,72.19
2018-06-03T07:02:26.963Z,72.83
2018-06-03T07:04:54.915Z,73.73
2018-06-03T07:07:28.973Z,72.18
2018-06-03T07:09:56.808Z,72.80
2018-06-03T07:12:24.684Z,72.71
2018-06-03T07:14:52.549Z,69.71
2018-06-03T07:17:20.376Z,69.52
2018-06-03T07:19:48.267Z,66.25
2018-06-03T07:22:16.142Z,65.06
2018-06-03T07:24:43.976Z,60.67
2018-06-03T07:27:11.794Z,59.99
2018-06-03T07:29:39.710Z,61.52
2018-06-03T07:32:07.691Z,62.04
2018-06-03T07:34:35.667Z,61.93
2018-06-03T07:37:03.629Z,62.04
2018-06-03T07:39:31.480Z,62.34
2018-06-03T07:41:59.301Z,62.98
2018-06-03T07:44:27.181Z,62.55
2018-06-03T07:46:55.192Z,60.05
2018-06-03T07:49:23.117Z,58.46
2018-06-03T07:51:51.068Z,56.62
2018-06-03T07:54:18.908Z,56.39
2018-06-03T07:56:46.727Z,56.95
2018-06-03T07:59:14.630Z,55.51
2018-06-03T08:01:42.895Z,57.07
2018-06-03T08:04:10.708Z,56.28
2018-06-03T08:06:38.575Z,57.74
2018-06-03T08:09:07.179Z,57.06
2018-06-03T08:11:34.987Z,55.75
2018-06-03T08:14:02.974Z,54.97
2018-06-03T08:16:30.822Z,54.67
2018-06-03T08:18:58.652Z,55.48
2018-06-03T08:21:26.705Z,54.95
2018-06-03T08:23:54.528Z,52.98
2018-06-03T08:26:22.336Z,46.89
2018-06-03T08:28:50.229Z,46.99
2018-06-03T08:31:18.048Z,45.41
2018-06-03T08:33:45.842Z,43.58
2018-06-03T08:36:13.756Z,44.68
2018-06-03T08:38:42.160Z,44.21
2018-06-03T08:41:09.960Z,45.45
2018-06-03T08:43:37.787Z,45.20
2018-06-03T08:46:05.587Z,44.07
2018-06-03T08:48:33.874Z,45.25
2018-06-03T08:51:01.719Z,45.05
2018-06-03T08:53:29.560Z,45.06
2018-06-03T08:55:57.385Z,45.74
2018-06-03T08:58:25.330Z,44.95
2018-06-03T09:00:53.134Z,44.57
2018-06-03T09:03:20.943Z,42.01
2018-06-03T09:05:48.796Z,43.28
2018-06-03T09:08:16.604Z,42.10
2018-06-03T09:10:44.440Z,42.96
2018-06-03T09:13:12.311Z,43.69
2018-06-03T09:15:40.119Z,42.26
2018-06-03T09:18:07.923Z,43.55
2018-06-03T09:20:35.857Z,43.86
2018-06-03T09:23:03.739Z,43.20
2018-06-03T09:25:31.565Z,43.82
2018-06-03T09:27:59.419Z,43.45
2018-06-03T09:30:27.781Z,42.11
2018-06-03T09:32:56.630Z,42.52
2018-06-03T09:35:24.512Z,41.53
2018-06-03T09:37:52.362Z,40.10
2018-06-03T09:40:20.205Z,40.78
2018-06-03T09:42:53.383Z,40.48
2018-06-03T09:45:21.216Z,39.94
2018-06-03T09:47:49.077Z,39.59
2018-06-03T09:50:17.044Z,39.04
2018-06-03T09:52:44.875Z,38.78
2018-06-03T09:55:12.697Z,40.79
2018-06-03T09:57:40.545Z,41.49
2018-06-03T10:00:08.456Z,40.24
2018-06-03T10:02:36.273Z,40.07
2018-06-03T10:05:04.247Z,40.18
2018-06-03T10:07:32.084Z,40.06
2018-06-03T10:09:59.891Z,37.58
2018-06-03T10:12:27.735Z,38.81
2018-06-03T10:14:55.527Z,36.64
2018-06-03T10:17:23.329Z,37.00
2018-06-03T10:19:51.182Z,36.24
2018-06-03T10:22:19.007Z,36.77
2018-06-03T10:24:46.804Z,36.34
2018-06-03T10:27:14.692Z,35.06
2018-06-03T10:29:42.520Z,36.15
2018-06-03T10:32:10.316Z,35.83
2018-06-03T10:34:38.175Z,34.99
2018-06-03T10:37:06.108Z,32.13
2018-06-03T10:39:34.240Z,35.90
2018-06-03T10:42:02.080Z,34.59
2018-06-03T10:44:30.007Z,33.99
2018-06-03T10:46:58.149Z,35.36
2018-06-03T10:49:27.021Z,32.74
2018-06-03T10:51:54.994Z,31.69
2018-06-03T10:54:22.942Z,31.95
2018-06-03T10:56:50.811Z,33.11
2018-06-03T10:59:18.614Z,30.07
2018-06-03T11:01:46.419Z,30.08
2018-06-03T11:04:14.419Z,33.31
2018-06-03T11:06:42.358Z,34.45
2018-06-03T11:09:10.479Z,33.03
2018-06-03T11:11:38.601Z,33.76
2018-06-03T11:14:06.408Z,34.92
2018-06-03T11:16:34.241Z,34.57
2018-06-03T11:19:02.098Z,33.94
2018-06-03T11:21:29.994Z,32.47
2018-06-03T11:23:57.996Z,33.05
2018-06-03T11:26:25.830Z,33.06
2018-06-03T11:28:53.807Z,33.08
2018-06-03T11:31:21.621Z,33.13
2018-06-03T11:33:49.594Z,34.94
2018-06-03T11:36:17.407Z,35.33
2018-06-03T11:38:45.371Z,37.34
2018-06-03T11:41:13.219Z,41.94
2018-06-03T11:43:41.111Z,40.57
2018-06-03T11:46:09.027Z,47.59
2018-06-03T11:48:36.883Z,46.93
2018-06-03T11:51:04.731Z,45.81
2018-06-03T11:53:36.287Z,46.20
2018-06-03T11:56:04.413Z,46.71
2018-06-03T11:58:43.214Z,50.52
2018-06-03T12:01:11.101Z,51.16
2018-06-03T12:03:38.888Z,50.97
2018-06-03T12:06:06.780Z,50.72
2018-06-03T12:08:34.628Z,47.85
2018-06-03T12:11:02.451Z,51.11
2018-06-03T12:13:30.236Z,54.29
2018-06-03T12:15:58.145Z,59.71
2018-06-03T12:18:25.941Z,61.01
2018-06-03T12:20:53.787Z,54.14
2018-06-03T12:23:21.633Z,53.11
2018-06-03T12:27:13.849Z,59.92
2018-06-03T12:29:41.681Z,58.27
2018-06-03T12:32:09.531Z,60.67
2018-06-03T12:34:37.325Z,61.10
2018-06-03T12:37:05.645Z,59.32
2018-06-03T12:39:33.448Z,61.63
2018-06-03T12:42:01.271Z,65.05
2018-06-03T12:44:29.141Z,64.55
2018-06-03T12:46:56.985Z,64.66
2018-06-03T12:49:24.875Z,61.39
2018-06-03T12:51:54.012Z,60.88
2018-06-03T12:54:22.078Z,59.21
2018-06-03T12:56:49.940Z,57.30
2018-06-03T12:59:17.888Z,53.37
2018-06-03T13:01:45.724Z,53.35
2018-06-03T13:04:13.554Z,51.27
2018-06-03T13:06:41.564Z,48.59
2018-06-03T13:09:09.459Z,47.45
2018-06-03T13:11:37.284Z,42.68
2018-06-03T13:14:05.141Z,41.67
2018-06-03T13:16:33.146Z,41.90
2018-06-03T13:19:00.966Z,39.77
2018-06-03T13:21:28.893Z,40.33
2018-06-03T13:23:56.721Z,41.89
2018-06-03T13:26:24.561Z,40.23
2018-06-03T13:28:52.413Z,39.68
2018-06-03T13:31:20.224Z,40.41
2018-06-03T13:33:48.045Z,39.81
2018-06-03T13:36:15.911Z,43.48
2018-06-03T13:38:43.696Z,46.45
2018-06-03T13:41:11.503Z,46.34
2018-06-03T13:43:39.415Z,46.14
2018-06-03T13:46:07.232Z,47.23
2018-06-03T13:48:35.082Z,45.67
2018-06-03T13:51:02.925Z,45.25
2018-06-03T13:53:30.772Z,45.62
2018-06-03T13:55:58.996Z,42.45
2018-06-03T13:58:26.865Z,42.04
2018-06-03T14:00:54.692Z,38.99
2018-06-03T14:03:22.516Z,38.20
2018-06-03T14:05:50.409Z,37.55
2018-06-03T14:08:18.244Z,35.91
2018-06-03T14:10:46.038Z,35.99
2018-06-03T14:13:13.911Z,35.68
2018-06-03T14:15:41.723Z,36.08
2018-06-03T14:18:09.542Z,34.48
2018-06-03T14:20:37.556Z,33.18
2018-06-03T14:23:05.361Z,36.20
2018-06-03T14:25:33.213Z,36.15
2018-06-03T14:28:01.294Z,36.60
2018-06-03T14:30:29.117Z,36.50
2018-06-03T14:32:57.119Z,39.85
2018-06-03T14:35:25.157Z,42.11
2018-06-03T14:37:53.015Z,40.54
2018-06-03T14:40:20.822Z,37.25
2018-06-03T14:42:48.654Z,36.50
2018-06-03T14:45:16.525Z,35.20
2018-06-03T14:47:44.390Z,34.81
2018-06-03T14:50:12.501Z,38.22
2018-06-03T14:52:41.989Z,35.29
2018-06-03T14:55:10.593Z,33.62
2018-06-03T14:57:38.558Z,32.40
2018-06-03T15:05:32.608Z,31.81
2018-06-03T15:08:00.443Z,29.84
2018-06-03T15:10:28.500Z,32.54
2018-06-03T15:12:56.454Z,32.77
2018-06-03T15:15:24.268Z,34.18
2018-06-03T15:17:52.115Z,34.51
2018-06-03T15:20:20.005Z,35.14
2018-06-03T15:22:48.082Z,34.83
2018-06-03T15:25:16.051Z,33.55
2018-06-03T15:27:43.947Z,34.89
2018-06-03T15:30:11.838Z,33.50
2018-06-03T15:32:46.960Z,35.48
2018-06-03T15:35:14.792Z,38.00
2018-06-03T15:37:42.619Z,40.71
2018-06-03T15:40:10.480Z,42.88
2018-06-03T15:42:38.301Z,44.16
2018-06-03T15:45:06.131Z,45.54
2018-06-03T15:47:34.108Z,44.82
2018-06-03T15:50:01.938Z,44.88
2018-06-03T15:52:29.745Z,47.42
2018-06-03T15:54:58.402Z,49.27
2018-06-03T15:57:26.359Z,48.36
2018-06-03T15:59:54.328Z,49.02
2018-06-03T16:02:22.463Z,49.99
2018-06-03T16:04:50.317Z,50.41
2018-06-03T16:07:18.131Z,49.34
2018-06-03T16:09:46.017Z,50.86
2018-06-03T16:12:13.924Z,50.14
2018-06-03T16:16:06.212Z,50.14
2018-06-03T16:18:34.035Z,52.60
2018-06-03T16:21:01.892Z,53.33
2018-06-03T16:23:29.768Z,53.50
2018-06-03T16:25:57.621Z,53.40
2018-06-03T16:28:25.478Z,54.12
2018-06-03T16:30:53.421Z,54.61
2018-06-03T16:33:21.451Z,55.39
2018-06-03T16:35:49.239Z,53.82
2018-06-03T16:38:17.106Z,53.45
2018-06-03T16:40:44.928Z,53.51
2018-06-03T16:43:13.382Z,53.79
2018-06-03T16:45:41.242Z,54.29
2018-06-03T16:48:09.070Z,54.47
2018-06-03T16:50:36.895Z,55.45
2018-06-03T16:53:05.529Z,57.69
2018-06-03T16:55:33.327Z,57.91
2018-06-03T16:58:01.146Z,58.10
2018-06-03T17:00:29.539Z,59.27
2018-06-03T17:02:58.258Z,59.34
2018-06-03T17:05:26.241Z,59.22
2018-06-03T17:07:54.226Z,60.20
2018-06-03T17:10:22.064Z,60.38
2018-06-03T17:12:49.859Z,61.43
2018-06-03T17:15:17.786Z,61.83
2018-06-03T17:17:45.616Z,62.22
2018-06-03T17:20:13.451Z,61.65
2018-06-03T17:22:41.357Z,62.27
2018-06-03T17:25:09.166Z,63.35
2018-06-03T17:27:36.989Z,62.94
2018-06-03T17:30:04.997Z,62.23
2018-06-03T17:32:32.816Z,62.91
2018-06-03T17:35:00.652Z,63.59
2018-06-03T17:37:28.801Z,64.67
2018-06-03T17:39:56.709Z,64.50
2018-06-03T17:42:24.547Z,65.89
2018-06-03T17:44:52.413Z,66.72
2018-06-03T17:47:20.211Z,66.49
2018-06-03T17:49:48.023Z,67.06
2018-06-03T17:52:16.032Z,66.74
2018-06-03T17:54:43.900Z,66.71
2018-06-03T17:57:11.765Z,67.51
2018-06-03T17:59:39.708Z,67.13
2018-06-03T18:02:08.360Z,67.61
2018-06-03T18:04:36.336Z,67.04
2018-06-03T18:07:04.282Z,67.47
2018-06-03T18:09:32.140Z,67.19
2018-06-03T18:11:59.969Z,67.25
2018-06-03T18:14:27.968Z,68.70
2018-06-03T18:16:56.010Z,68.12
2018-06-03T18:19:23.801Z,68.91
2018-06-03T18:21:51.761Z,69.81
2018-06-03T18:24:19.608Z,69.65
2018-06-03T18:26:47.956Z,69.77
2018-06-03T18:29:16.907Z,70.65
2018-06-03T18:31:44.733Z,71.46
2018-06-03T18:34:12.660Z,70.87
2018-06-03T18:36:40.538Z,72.17
2018-06-03T18:39:08.513Z,71.15
2018-06-03T18:41:36.892Z,71.83
2018-06-03T18:44:04.900Z,73.56
2018-06-03T18:46:32.814Z,71.53
2018-06-03T18:49:00.797Z,71.32
2018-06-03T18:51:28.856Z,72.41
2018-06-03T18:53:56.738Z,73.00
2018-06-03T18:56:24.741Z,73.22
2018-06-03T18:58:52.603Z,73.79
2018-06-03T19:01:20.838Z,73.75
2018-06-03T19:03:48.854Z,74.22
2018-06-03T19:06:17.317Z,74.30
2018-06-03T19:08:45.155Z,74.22
2018-06-03T19:11:12.989Z,74.40
2018-06-03T19:13:40.997Z,75.54
2018-06-03T19:16:08.895Z,75.51
2018-06-03T19:18:36.798Z,75.39
2018-06-03T19:21:04.780Z,76.05
2018-06-03T19:23:32.884Z,75.98
2018-06-03T19:26:00.709Z,75.58
2018-06-03T19:28:30.288Z,75.36
2018-06-03T19:30:58.152Z,75.74
2018-06-03T19:33:26.367Z,75.39
2018-06-03T19:35:54.205Z,76.11
2018-06-03T19:38:22.027Z,75.49
2018-06-03T19:40:49.910Z,76.11
2018-06-03T19:43:17.920Z,75.84
2018-06-03T19:45:45.776Z,76.77
2018-06-03T19:48:13.657Z,77.24
2018-06-03T19:50:41.586Z,77.80
2018-06-03T19:53:09.402Z,77.87
2018-06-03T19:55:37.231Z,78.08
2018-06-03T19:58:05.231Z,78.15
2018-06-03T20:00:33.048Z,77.01
2018-06-03T20:03:00.892Z,77.38
2018-06-03T20:05:28.861Z,76.57
2018-06-03T20:07:56.676Z,76.40
2018-06-03T20:10:24.619Z,77.43
2018-06-03T20:12:52.547Z,77.67
2018-06-03T20:15:20.499Z,78.72
2018-06-03T20:17:52.808Z,78.58
2018-06-03T20:20:20.804Z,77.97
2018-06-03T20:22:48.663Z,78.61
2018-06-03T20:25:21.914Z,78.53
2018-06-03T20:27:49.769Z,78.65
2018-06-03T20:30:17.608Z,78.11
2018-06-03T20:32:45.597Z,78.42
2018-06-03T20:35:13.451Z,78.49
2018-06-03T20:37:42.041Z,78.62
2018-06-03T20:40:09.934Z,78.39
2018-06-03T20:42:37.822Z,78.83
2018-06-03T20:45:05.608Z,78.77
2018-06-03T20:47:33.704Z,81.47
2018-06-03T20:50:01.504Z,83.96
2018-06-03T20:52:29.307Z,82.79
2018-06-03T20:54:57.215Z,83.81
2018-06-03T20:57:25.047Z,82.79
2018-06-03T20:59:52.869Z,84.46
2018-06-03T21:02:20.768Z,85.51
2018-06-03T21:04:48.645Z,85.14
2018-06-03T21:07:16.539Z,83.83
2018-06-03T21:09:44.388Z,82.61
2018-06-03T21:12:12.220Z,82.23
2018-06-03T21:14:40.035Z,82.61
2018-06-03T21:17:07.932Z,82.02
2018-06-03T21:19:35.739Z,81.71
2018-06-03T21:22:03.551Z,81.28
2018-06-03T21:25:55.862Z,80.56
2018-06-03T21:28:23.822Z,80.57
2018-06-03T21:31:07.164Z,81.75
2018-06-03T21:33:34.971Z,82.56
2018-06-03T21:36:02.777Z,83.10
2018-06-03T21:38:30.802Z,85.17
2018-06-03T21:41:01.950Z,86.42
2018-06-03T21:43:29.770Z,86.27
2018-06-03T21:45:57.639Z,85.24
2018-06-03T21:48:25.451Z,83.95
2018-06-03T21:50:53.308Z,83.18
2018-06-03T21:53:21.158Z,83.16
2018-06-03T21:55:48.954Z,83.05
2018-06-03T21:58:16.755Z,83.29
2018-06-03T22:00:44.675Z,82.55
2018-06-03T22:03:12.456Z,81.26
2018-06-03T22:05:40.260Z,80.67
2018-06-03T22:08:08.281Z,82.15
2018-06-03T22:10:36.095Z,82.25
2018-06-03T22:13:03.917Z,81.73
2018-06-03T22:15:31.757Z,82.37
2018-06-03T22:17:59.586Z,83.44
2018-06-03T22:20:27.408Z,82.87
2018-06-03T22:22:55.548Z,83.27
2018-06-03T22:25:23.476Z,83.15
2018-06-03T22:27:51.287Z,83.32
2018-06-03T22:30:19.283Z,84.50
2018-06-03T22:32:47.179Z,87.06
2018-06-03T22:35:14.993Z,87.73
2018-06-03T22:37:42.931Z,88.70
2018-06-03T22:40:10.775Z,89.79
2018-06-03T22:42:38.726Z,89.37
2018-06-03T22:45:06.898Z,87.86
2018-06-03T22:47:34.678Z,89.51
2018-06-03T22:50:02.558Z,89.05
2018-06-03T22:52:30.443Z,87.56
2018-06-03T22:54:58.245Z,86.93
2018-06-03T22:57:45.013Z,85.72
2018-06-03T23:00:22.619Z,85.16
2018-06-03T23:02:56.363Z,86.24
2018-06-03T23:05:24.270Z,86.67
2018-06-03T23:07:52.397Z,85.55
2018-06-03T23:10:20.879Z,84.78
2018-06-03T23:12:48.730Z,84.75
2018-06-03T23:15:16.603Z,83.95
2018-06-03T23:17:44.621Z,84.19
2018-06-03T23:20:12.478Z,83.48
2018-06-03T23:22:40.315Z,83.79
2018-06-03T23:25:08.309Z,83.47
2018-06-03T23:27:36.150Z,83.21
2018-06-03T23:30:04.194Z,82.83
2018-06-03T23:32:32.164Z,83.59
2018-06-03T23:34:59.970Z,82.78
2018-06-03T23:37:27.800Z,84.07
2018-06-03T23:39:55.815Z,85.43
2018-06-03T23:42:23.667Z,85.90
2018-06-03T23:44:51.640Z,86.66
2018-06-03T23:47:19.554Z,86.46
2018-06-03T23:49:47.673Z,87.12
2018-06-03T23:52:15.524Z,86.38
2018-06-03T23:54:43.540Z,86.05
2018-06-03T23:57:11.508Z,85.61
2018-06-03T23:59:39.314Z,85.53
